sensor_id;sensor_type;location;lat;lon;timestamp;temperature;humidity
19493;DHT22;9887;54.366;10.958;2022-07-06T00:01:59;15.30;99.90
19493;DHT22;9887;54.366;10.958;2022-07-06T00:04:27;15.40;99.90
19493;DHT22;9887;54.366;10.958;2022-07-06T00:06:55;15.50;99.90
19493;DHT22;9887;54.366;10.958;2022-07-06T00:09:25;15.50;99.90
19493;DHT22;9887;54.366;10.958;2022-07-06T00:11:53;15.50;99.90
19493;DHT22;9887;54.366;10.958;2022-07-06T00:14:21;15.50;99.90
19493;DHT22;9887;54.366;10.958;2022-07-06T00:16:49;15.50;99.90
19493;DHT22;9887;54.366;10.958;2022-07-06T00:19:17;15.60;99.90
19493;DHT22;9887;54.366;10.958;2022-07-06T00:21:45;15.60;99.90
19493;DHT22;9887;54.366;10.958;2022-07-06T00:24:12;15.60;99.90
19493;DHT22;9887;54.366;10.958;2022-07-06T00:26:41;15.60;99.90
19493;DHT22;9887;54.366;10.958;2022-07-06T00:29:09;15.60;99.90
19493;DHT22;9887;54.366;10.958;2022-07-06T00:31:37;15.50;99.90
19493;DHT22;9887;54.366;10.958;2022-07-06T00:34:06;15.40;99.90
19493;DHT22;9887;54.366;10.958;2022-07-06T00:36:34;15.40;99.90
19493;DHT22;9887;54.366;10.958;2022-07-06T00:39:02;15.40;99.90
19493;DHT22;9887;54.366;10.958;2022-07-06T00:41:30;15.50;99.90
19493;DHT22;9887;54.366;10.958;2022-07-06T00:43:59;15.50;99.90
19493;DHT22;9887;54.366;10.958;2022-07-06T00:46:30;15.50;99.90
19493;DHT22;9887;54.366;10.958;2022-07-06T00:48:59;15.30;99.90
19493;DHT22;9887;54.366;10.958;2022-07-06T00:51:29;15.10;99.90
19493;DHT22;9887;54.366;10.958;2022-07-06T00:53:59;15.00;99.90
19493;DHT22;9887;54.366;10.958;2022-07-06T00:56:29;14.90;99.90
19493;DHT22;9887;54.366;10.958;2022-07-06T00:58:57;14.70;99.90
19493;DHT22;9887;54.366;10.958;2022-07-06T01:01:27;14.90;99.90
19493;DHT22;9887;54.366;10.958;2022-07-06T01:03:55;14.90;99.90
19493;DHT22;9887;54.366;10.958;2022-07-06T01:06:23;14.70;99.90
19493;DHT22;9887;54.366;10.958;2022-07-06T01:08:52;14.90;99.90
19493;DHT22;9887;54.366;10.958;2022-07-06T01:11:21;14.80;99.90
19493;DHT22;9887;54.366;10.958;2022-07-06T01:13:50;14.80;99.90
19493;DHT22;9887;54.366;10.958;2022-07-06T01:16:18;14.70;99.90
19493;DHT22;9887;54.366;10.958;2022-07-06T01:18:48;14.70;99.90
19493;DHT22;9887;54.366;10.958;2022-07-06T01:21:17;14.80;99.90
19493;DHT22;9887;54.366;10.958;2022-07-06T01:23:46;14.70;99.90
19493;DHT22;9887;54.366;10.958;2022-07-06T01:26:16;14.80;99.90
19493;DHT22;9887;54.366;10.958;2022-07-06T01:28:46;14.70;99.90
19493;DHT22;9887;54.366;10.958;2022-07-06T01:31:15;14.70;99.90
19493;DHT22;9887;54.366;10.958;2022-07-06T01:33:44;14.80;99.90
19493;DHT22;9887;54.366;10.958;2022-07-06T01:36:12;14.80;99.90
19493;DHT22;9887;54.366;10.958;2022-07-06T01:38:45;14.80;99.90
19493;DHT22;9887;54.366;10.958;2022-07-06T01:41:14;14.90;99.90
19493;DHT22;9887;54.366;10.958;2022-07-06T01:43:42;14.90;99.90
19493;DHT22;9887;54.366;10.958;2022-07-06T01:46:11;15.00;99.90
19493;DHT22;9887;54.366;10.958;2022-07-06T01:48:39;14.90;99.90
19493;DHT22;9887;54.366;10.958;2022-07-06T01:51:07;15.00;99.90
19493;DHT22;9887;54.366;10.958;2022-07-06T01:53:36;15.00;99.90
19493;DHT22;9887;54.366;10.958;2022-07-06T01:56:07;15.00;99.90
19493;DHT22;9887;54.366;10.958;2022-07-06T01:58:36;14.90;99.90
19493;DHT22;9887;54.366;10.958;2022-07-06T02:01:07;14.90;99.90
19493;DHT22;9887;54.366;10.958;2022-07-06T02:03:35;14.90;99.90
19493;DHT22;9887;54.366;10.958;2022-07-06T02:06:04;14.90;99.90
19493;DHT22;9887;54.366;10.958;2022-07-06T02:08:33;14.90;99.90
19493;DHT22;9887;54.366;10.958;2022-07-06T02:11:02;15.00;99.90
19493;DHT22;9887;54.366;10.958;2022-07-06T02:13:31;14.90;99.90
19493;DHT22;9887;54.366;10.958;2022-07-06T02:16:00;15.00;99.90
19493;DHT22;9887;54.366;10.958;2022-07-06T02:18:29;14.90;99.90
19493;DHT22;9887;54.366;10.958;2022-07-06T02:20:57;14.90;99.90
19493;DHT22;9887;54.366;10.958;2022-07-06T02:23:26;14.90;99.90
19493;DHT22;9887;54.366;10.958;2022-07-06T02:25:54;14.90;99.90
19493;DHT22;9887;54.366;10.958;2022-07-06T02:28:23;14.90;99.90
19493;DHT22;9887;54.366;10.958;2022-07-06T02:30:53;14.90;99.90
19493;DHT22;9887;54.366;10.958;2022-07-06T02:33:22;14.90;99.90
19493;DHT22;9887;54.366;10.958;2022-07-06T02:35:50;14.90;99.90
19493;DHT22;9887;54.366;10.958;2022-07-06T02:38:18;14.90;99.90
19493;DHT22;9887;54.366;10.958;2022-07-06T02:40:47;14.90;99.90
19493;DHT22;9887;54.366;10.958;2022-07-06T02:43:15;14.90;99.90
19493;DHT22;9887;54.366;10.958;2022-07-06T02:45:43;14.90;99.90
19493;DHT22;9887;54.366;10.958;2022-07-06T02:48:13;14.90;99.90
19493;DHT22;9887;54.366;10.958;2022-07-06T02:50:40;15.00;99.90
19493;DHT22;9887;54.366;10.958;2022-07-06T02:53:08;14.90;99.90
19493;DHT22;9887;54.366;10.958;2022-07-06T02:55:36;14.80;99.90
19493;DHT22;9887;54.366;10.958;2022-07-06T02:58:06;14.70;99.90
19493;DHT22;9887;54.366;10.958;2022-07-06T03:00:34;14.90;99.90
19493;DHT22;9887;54.366;10.958;2022-07-06T03:03:02;15.00;99.90
19493;DHT22;9887;54.366;10.958;2022-07-06T03:05:32;15.00;99.90
19493;DHT22;9887;54.366;10.958;2022-07-06T03:08:00;15.10;99.90
19493;DHT22;9887;54.366;10.958;2022-07-06T03:10:29;15.10;99.90
19493;DHT22;9887;54.366;10.958;2022-07-06T03:12:57;15.20;99.90
19493;DHT22;9887;54.366;10.958;2022-07-06T03:15:25;15.20;99.90
19493;DHT22;9887;54.366;10.958;2022-07-06T03:17:53;15.20;99.90
19493;DHT22;9887;54.366;10.958;2022-07-06T03:20:22;15.20;99.90
19493;DHT22;9887;54.366;10.958;2022-07-06T03:22:52;15.30;99.90
19493;DHT22;9887;54.366;10.958;2022-07-06T03:25:20;15.40;99.90
19493;DHT22;9887;54.366;10.958;2022-07-06T03:27:49;15.40;99.90
19493;DHT22;9887;54.366;10.958;2022-07-06T03:30:18;15.40;99.90
19493;DHT22;9887;54.366;10.958;2022-07-06T03:32:51;15.40;99.90
19493;DHT22;9887;54.366;10.958;2022-07-06T03:35:20;15.40;99.90
19493;DHT22;9887;54.366;10.958;2022-07-06T03:37:52;15.50;99.90
19493;DHT22;9887;54.366;10.958;2022-07-06T03:40:22;15.50;99.90
19493;DHT22;9887;54.366;10.958;2022-07-06T03:42:51;15.40;99.90
19493;DHT22;9887;54.366;10.958;2022-07-06T03:45:20;15.50;99.90
19493;DHT22;9887;54.366;10.958;2022-07-06T03:47:48;15.60;99.90
19493;DHT22;9887;54.366;10.958;2022-07-06T03:50:16;15.50;99.90
19493;DHT22;9887;54.366;10.958;2022-07-06T03:52:44;15.50;99.90
19493;DHT22;9887;54.366;10.958;2022-07-06T03:55:13;15.60;99.90
19493;DHT22;9887;54.366;10.958;2022-07-06T03:57:47;15.60;99.90
19493;DHT22;9887;54.366;10.958;2022-07-06T04:00:19;15.60;99.90
19493;DHT22;9887;54.366;10.958;2022-07-06T04:02:54;15.60;99.90
19493;DHT22;9887;54.366;10.958;2022-07-06T04:05:27;15.80;99.90
19493;DHT22;9887;54.366;10.958;2022-07-06T04:07:55;15.90;99.90
19493;DHT22;9887;54.366;10.958;2022-07-06T04:10:31;15.90;99.90
19493;DHT22;9887;54.366;10.958;2022-07-06T04:13:00;15.80;99.90
19493;DHT22;9887;54.366;10.958;2022-07-06T04:15:29;15.70;99.90
19493;DHT22;9887;54.366;10.958;2022-07-06T04:17:57;15.80;99.90
19493;DHT22;9887;54.366;10.958;2022-07-06T04:20:34;15.70;99.90
19493;DHT22;9887;54.366;10.958;2022-07-06T04:23:02;15.70;99.90
19493;DHT22;9887;54.366;10.958;2022-07-06T04:25:31;15.30;99.90
19493;DHT22;9887;54.366;10.958;2022-07-06T04:28:01;15.30;99.90
19493;DHT22;9887;54.366;10.958;2022-07-06T04:30:31;15.30;99.90
19493;DHT22;9887;54.366;10.958;2022-07-06T04:33:01;15.40;99.90
19493;DHT22;9887;54.366;10.958;2022-07-06T04:35:31;15.30;99.90
19493;DHT22;9887;54.366;10.958;2022-07-06T04:37:59;15.40;99.90
19493;DHT22;9887;54.366;10.958;2022-07-06T04:40:27;15.40;99.90
19493;DHT22;9887;54.366;10.958;2022-07-06T04:43:00;15.50;99.90
19493;DHT22;9887;54.366;10.958;2022-07-06T04:45:29;15.60;99.90
19493;DHT22;9887;54.366;10.958;2022-07-06T04:47:58;15.60;99.90
19493;DHT22;9887;54.366;10.958;2022-07-06T04:50:26;15.60;99.90
19493;DHT22;9887;54.366;10.958;2022-07-06T04:52:58;15.80;99.90
19493;DHT22;9887;54.366;10.958;2022-07-06T04:55:26;15.80;99.90
19493;DHT22;9887;54.366;10.958;2022-07-06T04:57:54;15.80;99.90
19493;DHT22;9887;54.366;10.958;2022-07-06T05:00:24;15.90;99.90
19493;DHT22;9887;54.366;10.958;2022-07-06T05:02:53;16.00;99.90
19493;DHT22;9887;54.366;10.958;2022-07-06T05:05:25;16.00;99.90
19493;DHT22;9887;54.366;10.958;2022-07-06T05:07:53;16.10;99.90
19493;DHT22;9887;54.366;10.958;2022-07-06T05:10:21;16.10;99.90
19493;DHT22;9887;54.366;10.958;2022-07-06T05:12:54;16.20;99.90
19493;DHT22;9887;54.366;10.958;2022-07-06T05:15:24;16.10;99.90
19493;DHT22;9887;54.366;10.958;2022-07-06T05:17:52;16.10;99.90
19493;DHT22;9887;54.366;10.958;2022-07-06T05:20:20;16.00;99.90
19493;DHT22;9887;54.366;10.958;2022-07-06T05:22:48;16.00;99.90
19493;DHT22;9887;54.366;10.958;2022-07-06T05:25:20;15.90;99.90
19493;DHT22;9887;54.366;10.958;2022-07-06T05:27:48;16.00;99.90
19493;DHT22;9887;54.366;10.958;2022-07-06T05:30:17;16.10;99.90
19493;DHT22;9887;54.366;10.958;2022-07-06T05:32:46;16.20;99.90
19493;DHT22;9887;54.366;10.958;2022-07-06T05:35:14;16.10;99.90
19493;DHT22;9887;54.366;10.958;2022-07-06T05:38:04;16.00;99.90
19493;DHT22;9887;54.366;10.958;2022-07-06T05:40:32;16.00;99.90
19493;DHT22;9887;54.366;10.958;2022-07-06T05:43:00;15.90;99.90
19493;DHT22;9887;54.366;10.958;2022-07-06T05:45:28;15.90;99.90
19493;DHT22;9887;54.366;10.958;2022-07-06T05:47:58;15.80;99.90
19493;DHT22;9887;54.366;10.958;2022-07-06T05:50:43;15.80;99.90
19493;DHT22;9887;54.366;10.958;2022-07-06T05:53:11;15.80;99.90
19493;DHT22;9887;54.366;10.958;2022-07-06T05:55:47;15.80;99.90
19493;DHT22;9887;54.366;10.958;2022-07-06T05:58:16;15.90;99.90
19493;DHT22;9887;54.366;10.958;2022-07-06T06:00:45;15.90;99.90
19493;DHT22;9887;54.366;10.958;2022-07-06T06:03:19;16.00;99.90
19493;DHT22;9887;54.366;10.958;2022-07-06T06:05:48;16.00;99.90
19493;DHT22;9887;54.366;10.958;2022-07-06T06:08:18;16.00;99.90
19493;DHT22;9887;54.366;10.958;2022-07-06T06:10:49;15.90;99.90
19493;DHT22;9887;54.366;10.958;2022-07-06T06:13:19;15.90;99.90
19493;DHT22;9887;54.366;10.958;2022-07-06T06:15:48;16.00;99.90
19493;DHT22;9887;54.366;10.958;2022-07-06T06:18:16;16.00;99.90
19493;DHT22;9887;54.366;10.958;2022-07-06T06:20:47;16.00;99.90
19493;DHT22;9887;54.366;10.958;2022-07-06T06:23:15;16.20;99.90
19493;DHT22;9887;54.366;10.958;2022-07-06T06:25:43;16.10;99.90
19493;DHT22;9887;54.366;10.958;2022-07-06T06:28:11;16.10;99.90
19493;DHT22;9887;54.366;10.958;2022-07-06T06:30:39;16.20;99.90
19493;DHT22;9887;54.366;10.958;2022-07-06T06:33:08;16.20;99.90
19493;DHT22;9887;54.366;10.958;2022-07-06T06:35:37;16.30;99.90
19493;DHT22;9887;54.366;10.958;2022-07-06T06:38:06;16.40;99.90
19493;DHT22;9887;54.366;10.958;2022-07-06T06:40:34;16.50;99.90
19493;DHT22;9887;54.366;10.958;2022-07-06T06:43:02;16.60;99.90
19493;DHT22;9887;54.366;10.958;2022-07-06T06:45:31;16.60;99.90
19493;DHT22;9887;54.366;10.958;2022-07-06T06:47:59;16.80;99.90
19493;DHT22;9887;54.366;10.958;2022-07-06T06:50:27;16.90;99.90
19493;DHT22;9887;54.366;10.958;2022-07-06T06:52:55;16.90;99.90
19493;DHT22;9887;54.366;10.958;2022-07-06T06:55:24;17.00;99.90
19493;DHT22;9887;54.366;10.958;2022-07-06T06:57:52;17.20;99.90
19493;DHT22;9887;54.366;10.958;2022-07-06T07:00:20;17.60;99.90
19493;DHT22;9887;54.366;10.958;2022-07-06T07:02:48;17.80;99.90
19493;DHT22;9887;54.366;10.958;2022-07-06T07:05:15;17.80;99.90
19493;DHT22;9887;54.366;10.958;2022-07-06T07:07:43;18.00;99.90
19493;DHT22;9887;54.366;10.958;2022-07-06T07:10:11;18.20;99.90
19493;DHT22;9887;54.366;10.958;2022-07-06T07:12:44;18.20;99.90
19493;DHT22;9887;54.366;10.958;2022-07-06T07:15:13;18.30;99.90
19493;DHT22;9887;54.366;10.958;2022-07-06T07:17:41;18.50;99.90
19493;DHT22;9887;54.366;10.958;2022-07-06T07:20:10;18.60;99.90
19493;DHT22;9887;54.366;10.958;2022-07-06T07:22:38;18.70;99.90
19493;DHT22;9887;54.366;10.958;2022-07-06T07:25:06;18.80;99.90
19493;DHT22;9887;54.366;10.958;2022-07-06T07:27:35;19.30;99.90
19493;DHT22;9887;54.366;10.958;2022-07-06T07:35:01;19.50;99.90
19493;DHT22;9887;54.366;10.958;2022-07-06T07:39:57;19.90;99.90
19493;DHT22;9887;54.366;10.958;2022-07-06T07:42:26;20.10;99.90
19493;DHT22;9887;54.366;10.958;2022-07-06T07:44:53;20.10;99.90
19493;DHT22;9887;54.366;10.958;2022-07-06T07:47:23;20.10;99.90
19493;DHT22;9887;54.366;10.958;2022-07-06T07:49:51;20.10;99.90
19493;DHT22;9887;54.366;10.958;2022-07-06T07:52:19;20.30;99.90
19493;DHT22;9887;54.366;10.958;2022-07-06T07:54:47;20.10;99.90
19493;DHT22;9887;54.366;10.958;2022-07-06T07:57:34;20.30;99.90
19493;DHT22;9887;54.366;10.958;2022-07-06T08:00:03;20.40;99.90
19493;DHT22;9887;54.366;10.958;2022-07-06T08:02:38;20.50;99.90
19493;DHT22;9887;54.366;10.958;2022-07-06T08:05:07;20.60;99.90
19493;DHT22;9887;54.366;10.958;2022-07-06T08:07:35;20.60;99.90
19493;DHT22;9887;54.366;10.958;2022-07-06T08:10:03;20.60;99.90
19493;DHT22;9887;54.366;10.958;2022-07-06T08:12:31;20.60;99.90
19493;DHT22;9887;54.366;10.958;2022-07-06T08:14:59;20.60;99.90
19493;DHT22;9887;54.366;10.958;2022-07-06T08:17:27;20.60;99.90
19493;DHT22;9887;54.366;10.958;2022-07-06T08:19:56;20.50;99.90
19493;DHT22;9887;54.366;10.958;2022-07-06T08:22:25;20.60;99.90
19493;DHT22;9887;54.366;10.958;2022-07-06T08:24:53;20.70;99.90
19493;DHT22;9887;54.366;10.958;2022-07-06T08:27:21;20.70;99.90
19493;DHT22;9887;54.366;10.958;2022-07-06T08:29:49;20.70;99.90
19493;DHT22;9887;54.366;10.958;2022-07-06T08:32:17;20.60;99.90
19493;DHT22;9887;54.366;10.958;2022-07-06T08:35:08;20.80;99.90
19493;DHT22;9887;54.366;10.958;2022-07-06T08:37:36;21.10;99.90
19493;DHT22;9887;54.366;10.958;2022-07-06T08:40:05;21.30;99.90
19493;DHT22;9887;54.366;10.958;2022-07-06T08:42:34;21.40;99.90
19493;DHT22;9887;54.366;10.958;2022-07-06T08:45:04;21.40;99.90
19493;DHT22;9887;54.366;10.958;2022-07-06T08:47:35;21.60;99.90
19493;DHT22;9887;54.366;10.958;2022-07-06T08:50:04;21.60;99.90
19493;DHT22;9887;54.366;10.958;2022-07-06T08:52:34;21.70;99.90
19493;DHT22;9887;54.366;10.958;2022-07-06T08:55:03;21.80;99.90
19493;DHT22;9887;54.366;10.958;2022-07-06T08:57:31;21.90;99.90
19493;DHT22;9887;54.366;10.958;2022-07-06T08:59:59;21.60;99.90
19493;DHT22;9887;54.366;10.958;2022-07-06T09:02:27;21.30;99.90
19493;DHT22;9887;54.366;10.958;2022-07-06T09:04:56;20.80;99.90
19493;DHT22;9887;54.366;10.958;2022-07-06T09:07:27;20.70;99.90
19493;DHT22;9887;54.366;10.958;2022-07-06T09:10:17;20.70;99.90
19493;DHT22;9887;54.366;10.958;2022-07-06T09:12:46;20.60;99.90
19493;DHT22;9887;54.366;10.958;2022-07-06T09:15:14;20.20;99.90
19493;DHT22;9887;54.366;10.958;2022-07-06T09:17:43;19.80;99.90
19493;DHT22;9887;54.366;10.958;2022-07-06T09:20:12;19.60;99.90
19493;DHT22;9887;54.366;10.958;2022-07-06T09:22:41;19.10;99.90
19493;DHT22;9887;54.366;10.958;2022-07-06T09:25:10;18.80;99.90
19493;DHT22;9887;54.366;10.958;2022-07-06T09:27:41;18.30;99.90
19493;DHT22;9887;54.366;10.958;2022-07-06T09:30:10;18.20;99.90
19493;DHT22;9887;54.366;10.958;2022-07-06T09:32:39;17.90;99.90
19493;DHT22;9887;54.366;10.958;2022-07-06T09:35:08;17.90;99.90
19493;DHT22;9887;54.366;10.958;2022-07-06T09:37:36;17.70;99.90
19493;DHT22;9887;54.366;10.958;2022-07-06T09:40:16;17.70;99.90
19493;DHT22;9887;54.366;10.958;2022-07-06T09:42:46;17.80;99.90
19493;DHT22;9887;54.366;10.958;2022-07-06T09:45:20;17.90;99.90
19493;DHT22;9887;54.366;10.958;2022-07-06T09:47:52;18.10;99.90
19493;DHT22;9887;54.366;10.958;2022-07-06T09:50:20;18.20;99.90
19493;DHT22;9887;54.366;10.958;2022-07-06T09:52:53;18.30;99.90
19493;DHT22;9887;54.366;10.958;2022-07-06T09:55:22;18.60;99.90
19493;DHT22;9887;54.366;10.958;2022-07-06T09:57:54;18.70;99.90
19493;DHT22;9887;54.366;10.958;2022-07-06T10:00:22;18.90;99.90
19493;DHT22;9887;54.366;10.958;2022-07-06T10:02:51;19.00;99.90
19493;DHT22;9887;54.366;10.958;2022-07-06T10:05:22;19.10;99.90
19493;DHT22;9887;54.366;10.958;2022-07-06T10:07:58;19.20;99.90
19493;DHT22;9887;54.366;10.958;2022-07-06T10:10:28;19.50;99.90
19493;DHT22;9887;54.366;10.958;2022-07-06T10:12:58;19.60;99.90
19493;DHT22;9887;54.366;10.958;2022-07-06T10:15:28;19.80;99.90
19493;DHT22;9887;54.366;10.958;2022-07-06T10:17:59;20.00;99.90
19493;DHT22;9887;54.366;10.958;2022-07-06T10:20:29;20.00;99.90
19493;DHT22;9887;54.366;10.958;2022-07-06T10:22:59;20.00;99.90
19493;DHT22;9887;54.366;10.958;2022-07-06T10:25:28;20.20;99.90
19493;DHT22;9887;54.366;10.958;2022-07-06T10:27:57;20.40;99.90
19493;DHT22;9887;54.366;10.958;2022-07-06T10:30:26;20.60;99.90
19493;DHT22;9887;54.366;10.958;2022-07-06T10:32:56;20.90;99.90
19493;DHT22;9887;54.366;10.958;2022-07-06T10:35:25;21.20;99.90
19493;DHT22;9887;54.366;10.958;2022-07-06T10:40:32;21.60;99.90
19493;DHT22;9887;54.366;10.958;2022-07-06T10:43:20;21.90;99.90
19493;DHT22;9887;54.366;10.958;2022-07-06T10:45:52;21.90;99.90
19493;DHT22;9887;54.366;10.958;2022-07-06T10:48:21;21.90;99.90
19493;DHT22;9887;54.366;10.958;2022-07-06T10:50:52;21.90;99.90
19493;DHT22;9887;54.366;10.958;2022-07-06T10:53:24;21.80;99.90
19493;DHT22;9887;54.366;10.958;2022-07-06T10:55:53;21.90;99.90
19493;DHT22;9887;54.366;10.958;2022-07-06T10:58:47;21.80;99.90
19493;DHT22;9887;54.366;10.958;2022-07-06T11:01:18;21.80;99.90
19493;DHT22;9887;54.366;10.958;2022-07-06T11:03:48;21.80;99.90
19493;DHT22;9887;54.366;10.958;2022-07-06T11:06:17;21.40;99.90
19493;DHT22;9887;54.366;10.958;2022-07-06T11:08:51;20.90;99.90
19493;DHT22;9887;54.366;10.958;2022-07-06T11:11:22;21.00;99.90
19493;DHT22;9887;54.366;10.958;2022-07-06T11:13:58;21.10;99.90
19493;DHT22;9887;54.366;10.958;2022-07-06T11:16:29;21.40;99.90
19493;DHT22;9887;54.366;10.958;2022-07-06T11:19:03;21.50;99.90
19493;DHT22;9887;54.366;10.958;2022-07-06T11:21:39;21.30;99.90
19493;DHT22;9887;54.366;10.958;2022-07-06T11:24:09;21.30;99.90
19493;DHT22;9887;54.366;10.958;2022-07-06T11:26:38;21.40;99.90
19493;DHT22;9887;54.366;10.958;2022-07-06T11:29:09;21.50;99.90
19493;DHT22;9887;54.366;10.958;2022-07-06T11:31:38;21.70;99.90
19493;DHT22;9887;54.366;10.958;2022-07-06T11:34:09;21.50;99.90
19493;DHT22;9887;54.366;10.958;2022-07-06T11:36:37;21.30;99.90
19493;DHT22;9887;54.366;10.958;2022-07-06T11:39:11;21.40;99.90
19493;DHT22;9887;54.366;10.958;2022-07-06T11:41:39;21.30;99.90
19493;DHT22;9887;54.366;10.958;2022-07-06T11:44:17;21.30;99.90
19493;DHT22;9887;54.366;10.958;2022-07-06T11:46:45;21.40;99.90
19493;DHT22;9887;54.366;10.958;2022-07-06T11:49:13;21.50;99.90
19493;DHT22;9887;54.366;10.958;2022-07-06T11:51:42;21.60;99.90
19493;DHT22;9887;54.366;10.958;2022-07-06T11:54:12;21.50;99.90
19493;DHT22;9887;54.366;10.958;2022-07-06T11:56:46;21.30;99.90
19493;DHT22;9887;54.366;10.958;2022-07-06T11:59:16;21.30;99.90
19493;DHT22;9887;54.366;10.958;2022-07-06T12:01:47;21.50;99.90
19493;DHT22;9887;54.366;10.958;2022-07-06T12:04:15;21.60;99.90
19493;DHT22;9887;54.366;10.958;2022-07-06T12:06:44;21.70;99.90
19493;DHT22;9887;54.366;10.958;2022-07-06T12:09:12;21.70;99.90
19493;DHT22;9887;54.366;10.958;2022-07-06T12:11:44;21.70;99.90
19493;DHT22;9887;54.366;10.958;2022-07-06T12:14:14;21.70;99.90
19493;DHT22;9887;54.366;10.958;2022-07-06T12:16:45;21.80;99.90
19493;DHT22;9887;54.366;10.958;2022-07-06T12:19:13;21.80;99.90
19493;DHT22;9887;54.366;10.958;2022-07-06T12:21:46;21.80;99.90
19493;DHT22;9887;54.366;10.958;2022-07-06T12:24:18;21.90;99.90
19493;DHT22;9887;54.366;10.958;2022-07-06T12:26:47;21.90;99.90
19493;DHT22;9887;54.366;10.958;2022-07-06T12:29:16;21.90;99.90
19493;DHT22;9887;54.366;10.958;2022-07-06T12:31:50;21.90;99.90
19493;DHT22;9887;54.366;10.958;2022-07-06T12:34:20;21.90;99.90
19493;DHT22;9887;54.366;10.958;2022-07-06T12:41:49;22.40;99.90
19493;DHT22;9887;54.366;10.958;2022-07-06T12:46:48;22.60;99.90
19493;DHT22;9887;54.366;10.958;2022-07-06T12:49:18;22.70;99.90
19493;DHT22;9887;54.366;10.958;2022-07-06T12:51:58;22.70;99.90
19493;DHT22;9887;54.366;10.958;2022-07-06T12:54:29;22.90;99.90
19493;DHT22;9887;54.366;10.958;2022-07-06T12:57:03;23.00;99.90
19493;DHT22;9887;54.366;10.958;2022-07-06T12:59:34;23.00;99.90
19493;DHT22;9887;54.366;10.958;2022-07-06T13:02:04;23.20;99.90
19493;DHT22;9887;54.366;10.958;2022-07-06T13:04:33;23.20;99.90
19493;DHT22;9887;54.366;10.958;2022-07-06T13:07:01;23.20;99.90
19493;DHT22;9887;54.366;10.958;2022-07-06T13:09:34;23.00;99.90
19493;DHT22;9887;54.366;10.958;2022-07-06T13:12:02;23.00;99.90
19493;DHT22;9887;54.366;10.958;2022-07-06T13:14:30;22.80;99.90
19493;DHT22;9887;54.366;10.958;2022-07-06T13:16:59;22.90;99.90
19493;DHT22;9887;54.366;10.958;2022-07-06T13:19:29;22.90;99.90
19493;DHT22;9887;54.366;10.958;2022-07-06T13:21:57;23.00;99.90
19493;DHT22;9887;54.366;10.958;2022-07-06T13:26:54;23.00;99.90
19493;DHT22;9887;54.366;10.958;2022-07-06T13:29:23;22.90;99.90
19493;DHT22;9887;54.366;10.958;2022-07-06T13:31:51;22.90;99.90
19493;DHT22;9887;54.366;10.958;2022-07-06T13:34:19;22.80;99.90
19493;DHT22;9887;54.366;10.958;2022-07-06T13:36:48;22.80;99.90
19493;DHT22;9887;54.366;10.958;2022-07-06T13:39:16;22.70;99.90
19493;DHT22;9887;54.366;10.958;2022-07-06T13:41:44;22.80;99.90
19493;DHT22;9887;54.366;10.958;2022-07-06T13:44:12;22.90;99.90
19493;DHT22;9887;54.366;10.958;2022-07-06T13:46:41;23.00;99.90
19493;DHT22;9887;54.366;10.958;2022-07-06T13:49:10;23.10;99.90
19493;DHT22;9887;54.366;10.958;2022-07-06T13:51:38;23.10;99.90
19493;DHT22;9887;54.366;10.958;2022-07-06T13:54:08;22.90;99.90
19493;DHT22;9887;54.366;10.958;2022-07-06T13:56:38;22.80;99.90
19493;DHT22;9887;54.366;10.958;2022-07-06T13:59:06;22.60;99.90
19493;DHT22;9887;54.366;10.958;2022-07-06T14:01:34;22.70;99.90
19493;DHT22;9887;54.366;10.958;2022-07-06T14:04:03;22.50;99.90
19493;DHT22;9887;54.366;10.958;2022-07-06T14:06:30;22.50;99.90
19493;DHT22;9887;54.366;10.958;2022-07-06T14:08:58;22.40;99.90
19493;DHT22;9887;54.366;10.958;2022-07-06T14:11:27;22.20;99.90
19493;DHT22;9887;54.366;10.958;2022-07-06T14:13:55;22.00;99.90
19493;DHT22;9887;54.366;10.958;2022-07-06T14:16:23;22.00;99.90
19493;DHT22;9887;54.366;10.958;2022-07-06T14:18:51;22.00;99.90
19493;DHT22;9887;54.366;10.958;2022-07-06T14:21:19;22.00;99.90
19493;DHT22;9887;54.366;10.958;2022-07-06T14:23:47;21.90;99.90
19493;DHT22;9887;54.366;10.958;2022-07-06T14:26:16;21.80;99.90
19493;DHT22;9887;54.366;10.958;2022-07-06T14:28:45;21.80;99.90
19493;DHT22;9887;54.366;10.958;2022-07-06T14:31:13;21.80;99.90
19493;DHT22;9887;54.366;10.958;2022-07-06T14:33:47;21.80;99.90
19493;DHT22;9887;54.366;10.958;2022-07-06T14:36:15;21.80;99.90
19493;DHT22;9887;54.366;10.958;2022-07-06T14:38:43;21.90;99.90
19493;DHT22;9887;54.366;10.958;2022-07-06T14:41:11;21.90;99.90
19493;DHT22;9887;54.366;10.958;2022-07-06T14:43:39;21.90;99.90
19493;DHT22;9887;54.366;10.958;2022-07-06T14:46:08;21.90;99.90
19493;DHT22;9887;54.366;10.958;2022-07-06T14:48:36;21.90;99.90
19493;DHT22;9887;54.366;10.958;2022-07-06T14:51:04;21.80;99.90
19493;DHT22;9887;54.366;10.958;2022-07-06T14:53:32;21.80;99.90
19493;DHT22;9887;54.366;10.958;2022-07-06T14:56:00;21.90;99.90
19493;DHT22;9887;54.366;10.958;2022-07-06T14:58:28;22.00;99.90
19493;DHT22;9887;54.366;10.958;2022-07-06T15:00:56;22.10;99.90
19493;DHT22;9887;54.366;10.958;2022-07-06T15:03:26;22.20;99.90
19493;DHT22;9887;54.366;10.958;2022-07-06T15:05:56;22.20;99.90
19493;DHT22;9887;54.366;10.958;2022-07-06T15:08:23;22.10;99.90
19493;DHT22;9887;54.366;10.958;2022-07-06T15:10:52;22.10;99.90
19493;DHT22;9887;54.366;10.958;2022-07-06T15:13:20;22.20;99.90
19493;DHT22;9887;54.366;10.958;2022-07-06T15:15:47;22.10;99.90
19493;DHT22;9887;54.366;10.958;2022-07-06T15:18:26;22.00;99.90
19493;DHT22;9887;54.366;10.958;2022-07-06T15:20:54;22.10;99.90
19493;DHT22;9887;54.366;10.958;2022-07-06T15:23:22;22.20;99.90
19493;DHT22;9887;54.366;10.958;2022-07-06T15:25:51;22.20;99.90
19493;DHT22;9887;54.366;10.958;2022-07-06T15:28:23;22.10;99.90
19493;DHT22;9887;54.366;10.958;2022-07-06T15:30:53;22.00;99.90
19493;DHT22;9887;54.366;10.958;2022-07-06T15:33:22;22.00;99.90
19493;DHT22;9887;54.366;10.958;2022-07-06T15:35:52;21.90;99.90
19493;DHT22;9887;54.366;10.958;2022-07-06T15:38:20;21.90;99.90
19493;DHT22;9887;54.366;10.958;2022-07-06T15:40:48;22.00;99.90
19493;DHT22;9887;54.366;10.958;2022-07-06T15:43:19;22.00;99.90
19493;DHT22;9887;54.366;10.958;2022-07-06T15:45:46;22.00;99.90
19493;DHT22;9887;54.366;10.958;2022-07-06T15:48:14;22.00;99.90
19493;DHT22;9887;54.366;10.958;2022-07-06T15:50:42;22.00;99.90
19493;DHT22;9887;54.366;10.958;2022-07-06T15:53:12;21.90;99.90
19493;DHT22;9887;54.366;10.958;2022-07-06T15:55:39;21.90;99.90
19493;DHT22;9887;54.366;10.958;2022-07-06T15:58:07;21.80;99.90
19493;DHT22;9887;54.366;10.958;2022-07-06T16:00:35;21.70;99.90
19493;DHT22;9887;54.366;10.958;2022-07-06T16:03:03;21.60;99.90
19493;DHT22;9887;54.366;10.958;2022-07-06T16:05:31;21.30;99.90